sensor_id;sensor_type;location;lat;lon;timestamp;temperature;humidity
70534;SHT31;58088;51.186;17.130;2024-02-14T00:00:07;2.24;70.91
70534;SHT31;58088;51.186;17.130;2024-02-14T00:02:43;2.23;71.04
70534;SHT31;58088;51.186;17.130;2024-02-14T00:05:10;2.21;71.13
70534;SHT31;58088;51.186;17.130;2024-02-14T00:07:37;2.21;71.19
70534;SHT31;58088;51.186;17.130;2024-02-14T00:10:05;2.22;71.23
70534;SHT31;58088;51.186;17.130;2024-02-14T00:12:32;2.22;71.30
70534;SHT31;58088;51.186;17.130;2024-02-14T00:14:59;2.21;71.41
70534;SHT31;58088;51.186;17.130;2024-02-14T00:17:25;2.20;71.51
70534;SHT31;58088;51.186;17.130;2024-02-14T00:19:51;2.19;71.66
70534;SHT31;58088;51.186;17.130;2024-02-14T00:22:17;2.22;71.74
70534;SHT31;58088;51.186;17.130;2024-02-14T00:24:43;2.25;71.79
70534;SHT31;58088;51.186;17.130;2024-02-14T00:27:09;2.26;71.82
70534;SHT31;58088;51.186;17.130;2024-02-14T00:29:35;2.27;71.85
70534;SHT31;58088;51.186;17.130;2024-02-14T00:32:02;2.24;71.94
70534;SHT31;58088;51.186;17.130;2024-02-14T00:34:28;2.24;72.02
70534;SHT31;58088;51.186;17.130;2024-02-14T00:36:54;2.26;72.08
70534;SHT31;58088;51.186;17.130;2024-02-14T00:39:21;2.29;72.11
70534;SHT31;58088;51.186;17.130;2024-02-14T00:41:47;2.33;72.17
70534;SHT31;58088;51.186;17.130;2024-02-14T00:44:13;2.34;72.13
70534;SHT31;58088;51.186;17.130;2024-02-14T00:46:44;2.37;72.10
70534;SHT31;58088;51.186;17.130;2024-02-14T00:49:10;2.38;72.10
70534;SHT31;58088;51.186;17.130;2024-02-14T00:51:37;2.39;72.09
70534;SHT31;58088;51.186;17.130;2024-02-14T00:54:04;2.40;72.10
70534;SHT31;58088;51.186;17.130;2024-02-14T00:56:30;2.40;72.10
70534;SHT31;58088;51.186;17.130;2024-02-14T00:58:59;2.40;72.10
70534;SHT31;58088;51.186;17.130;2024-02-14T01:01:25;2.38;72.11
70534;SHT31;58088;51.186;17.130;2024-02-14T01:03:52;2.40;72.15
70534;SHT31;58088;51.186;17.130;2024-02-14T01:06:18;2.41;72.21
70534;SHT31;58088;51.186;17.130;2024-02-14T01:08:46;2.44;72.32
70534;SHT31;58088;51.186;17.130;2024-02-14T01:11:12;2.45;72.32
70534;SHT31;58088;51.186;17.130;2024-02-14T01:13:39;2.45;72.37
70534;SHT31;58088;51.186;17.130;2024-02-14T01:16:06;2.47;72.40
70534;SHT31;58088;51.186;17.130;2024-02-14T01:18:33;2.47;72.41
70534;SHT31;58088;51.186;17.130;2024-02-14T01:20:59;2.49;72.45
70534;SHT31;58088;51.186;17.130;2024-02-14T01:23:26;2.51;72.46
70534;SHT31;58088;51.186;17.130;2024-02-14T01:26:01;2.52;72.49
70534;SHT31;58088;51.186;17.130;2024-02-14T01:28:27;2.54;72.50
70534;SHT31;58088;51.186;17.130;2024-02-14T01:30:53;2.55;72.48
70534;SHT31;58088;51.186;17.130;2024-02-14T01:33:21;2.56;72.44
70534;SHT31;58088;51.186;17.130;2024-02-14T01:35:54;2.56;72.41
70534;SHT31;58088;51.186;17.130;2024-02-14T01:38:24;2.55;72.48
70534;SHT31;58088;51.186;17.130;2024-02-14T01:40:50;2.54;72.46
70534;SHT31;58088;51.186;17.130;2024-02-14T01:43:16;2.55;72.49
70534;SHT31;58088;51.186;17.130;2024-02-14T01:45:43;2.56;72.47
70534;SHT31;58088;51.186;17.130;2024-02-14T01:48:09;2.57;72.48
70534;SHT31;58088;51.186;17.130;2024-02-14T01:50:41;2.58;72.40
70534;SHT31;58088;51.186;17.130;2024-02-14T01:53:10;2.59;72.40
70534;SHT31;58088;51.186;17.130;2024-02-14T01:55:56;2.56;72.33
70534;SHT31;58088;51.186;17.130;2024-02-14T01:58:37;2.53;72.40
70534;SHT31;58088;51.186;17.130;2024-02-14T02:01:11;2.48;72.50
70534;SHT31;58088;51.186;17.130;2024-02-14T02:03:37;2.47;72.65
70534;SHT31;58088;51.186;17.130;2024-02-14T02:06:05;2.46;72.69
70534;SHT31;58088;51.186;17.130;2024-02-14T02:08:44;2.48;72.57
70534;SHT31;58088;51.186;17.130;2024-02-14T02:11:16;2.48;72.37
70534;SHT31;58088;51.186;17.130;2024-02-14T02:14:00;2.47;72.17
70534;SHT31;58088;51.186;17.130;2024-02-14T02:16:29;2.48;72.04
70534;SHT31;58088;51.186;17.130;2024-02-14T02:18:57;2.48;71.98
70534;SHT31;58088;51.186;17.130;2024-02-14T02:21:23;2.46;71.88
70534;SHT31;58088;51.186;17.130;2024-02-14T02:23:55;2.43;71.80
70534;SHT31;58088;51.186;17.130;2024-02-14T02:26:26;2.41;71.74
70534;SHT31;58088;51.186;17.130;2024-02-14T02:28:53;2.39;71.67
70534;SHT31;58088;51.186;17.130;2024-02-14T02:31:20;2.37;71.61
70534;SHT31;58088;51.186;17.130;2024-02-14T02:33:47;2.33;71.54
70534;SHT31;58088;51.186;17.130;2024-02-14T02:36:13;2.29;71.52
70534;SHT31;58088;51.186;17.130;2024-02-14T02:38:45;2.25;71.41
70534;SHT31;58088;51.186;17.130;2024-02-14T02:41:12;2.23;71.40
70534;SHT31;58088;51.186;17.130;2024-02-14T02:43:41;2.20;71.39
70534;SHT31;58088;51.186;17.130;2024-02-14T02:46:11;2.17;71.30
70534;SHT31;58088;51.186;17.130;2024-02-14T02:48:40;2.15;71.20
70534;SHT31;58088;51.186;17.130;2024-02-14T02:51:10;2.13;71.13
70534;SHT31;58088;51.186;17.130;2024-02-14T02:53:39;2.10;71.02
70534;SHT31;58088;51.186;17.130;2024-02-14T02:56:29;2.07;71.02
70534;SHT31;58088;51.186;17.130;2024-02-14T02:59:05;2.02;71.13
70534;SHT31;58088;51.186;17.130;2024-02-14T03:02:02;1.98;71.26
70534;SHT31;58088;51.186;17.130;2024-02-14T03:04:49;1.96;71.29
70534;SHT31;58088;51.186;17.130;2024-02-14T03:07:16;1.91;71.31
70534;SHT31;58088;51.186;17.130;2024-02-14T03:09:44;1.84;71.45
70534;SHT31;58088;51.186;17.130;2024-02-14T03:12:11;1.81;71.56
70534;SHT31;58088;51.186;17.130;2024-02-14T03:14:44;1.81;71.62
70534;SHT31;58088;51.186;17.130;2024-02-14T03:17:12;1.78;71.65
70534;SHT31;58088;51.186;17.130;2024-02-14T03:19:42;1.76;71.79
70534;SHT31;58088;51.186;17.130;2024-02-14T03:22:08;1.73;71.80
70534;SHT31;58088;51.186;17.130;2024-02-14T03:24:36;1.71;71.80
70534;SHT31;58088;51.186;17.130;2024-02-14T03:27:03;1.67;71.76
70534;SHT31;58088;51.186;17.130;2024-02-14T03:29:33;1.65;71.78
70534;SHT31;58088;51.186;17.130;2024-02-14T03:32:00;1.64;71.75
70534;SHT31;58088;51.186;17.130;2024-02-14T03:34:32;1.60;71.70
70534;SHT31;58088;51.186;17.130;2024-02-14T03:37:04;1.57;71.76
70534;SHT31;58088;51.186;17.130;2024-02-14T03:39:41;1.57;71.72
70534;SHT31;58088;51.186;17.130;2024-02-14T03:42:07;1.53;71.74
70534;SHT31;58088;51.186;17.130;2024-02-14T03:44:33;1.53;71.76
70534;SHT31;58088;51.186;17.130;2024-02-14T03:47:00;1.52;71.80
70534;SHT31;58088;51.186;17.130;2024-02-14T03:49:29;1.52;71.88
70534;SHT31;58088;51.186;17.130;2024-02-14T03:51:56;1.54;71.90
70534;SHT31;58088;51.186;17.130;2024-02-14T03:54:25;1.54;71.90
70534;SHT31;58088;51.186;17.130;2024-02-14T03:56:54;1.50;71.94
70534;SHT31;58088;51.186;17.130;2024-02-14T03:59:22;1.50;72.03
70534;SHT31;58088;51.186;17.130;2024-02-14T04:01:52;1.48;72.10
70534;SHT31;58088;51.186;17.130;2024-02-14T04:04:19;1.46;72.10
70534;SHT31;58088;51.186;17.130;2024-02-14T04:06:51;1.47;72.05
70534;SHT31;58088;51.186;17.130;2024-02-14T04:09:24;1.43;71.97
70534;SHT31;58088;51.186;17.130;2024-02-14T04:11:54;1.42;72.04
70534;SHT31;58088;51.186;17.130;2024-02-14T04:14:22;1.41;72.01
70534;SHT31;58088;51.186;17.130;2024-02-14T04:16:48;1.41;72.08
70534;SHT31;58088;51.186;17.130;2024-02-14T04:19:15;1.38;72.32
70534;SHT31;58088;51.186;17.130;2024-02-14T04:21:44;1.37;72.46
70534;SHT31;58088;51.186;17.130;2024-02-14T04:24:11;1.36;72.51
70534;SHT31;58088;51.186;17.130;2024-02-14T04:26:41;1.35;72.50
70534;SHT31;58088;51.186;17.130;2024-02-14T04:29:14;1.33;72.50
70534;SHT31;58088;51.186;17.130;2024-02-14T04:31:40;1.32;72.55
70534;SHT31;58088;51.186;17.130;2024-02-14T04:34:08;1.32;72.60
70534;SHT31;58088;51.186;17.130;2024-02-14T04:36:35;1.32;72.55
70534;SHT31;58088;51.186;17.130;2024-02-14T04:39:02;1.31;72.51
70534;SHT31;58088;51.186;17.130;2024-02-14T04:41:29;1.31;72.51
70534;SHT31;58088;51.186;17.130;2024-02-14T04:43:56;1.29;72.43
70534;SHT31;58088;51.186;17.130;2024-02-14T04:46:22;1.27;72.45
70534;SHT31;58088;51.186;17.130;2024-02-14T04:48:52;1.26;72.50
70534;SHT31;58088;51.186;17.130;2024-02-14T04:51:20;1.25;72.57
70534;SHT31;58088;51.186;17.130;2024-02-14T04:53:46;1.26;72.60
70534;SHT31;58088;51.186;17.130;2024-02-14T04:56:12;1.25;72.61
70534;SHT31;58088;51.186;17.130;2024-02-14T04:58:47;1.24;72.70
70534;SHT31;58088;51.186;17.130;2024-02-14T05:01:13;1.23;72.70
70534;SHT31;58088;51.186;17.130;2024-02-14T05:03:41;1.22;72.61
70534;SHT31;58088;51.186;17.130;2024-02-14T05:06:07;1.23;72.62
70534;SHT31;58088;51.186;17.130;2024-02-14T05:08:33;1.22;72.64
70534;SHT31;58088;51.186;17.130;2024-02-14T05:10:59;1.23;72.58
70534;SHT31;58088;51.186;17.130;2024-02-14T05:13:25;1.22;72.50
70534;SHT31;58088;51.186;17.130;2024-02-14T05:15:52;1.23;72.49
70534;SHT31;58088;51.186;17.130;2024-02-14T05:18:18;1.23;72.47
70534;SHT31;58088;51.186;17.130;2024-02-14T05:20:47;1.20;72.50
70534;SHT31;58088;51.186;17.130;2024-02-14T05:23:15;1.20;72.41
70534;SHT31;58088;51.186;17.130;2024-02-14T05:25:43;1.20;72.41
70534;SHT31;58088;51.186;17.130;2024-02-14T05:28:10;1.20;72.40
70534;SHT31;58088;51.186;17.130;2024-02-14T05:30:42;1.21;72.40
70534;SHT31;58088;51.186;17.130;2024-02-14T05:33:18;1.22;72.40
70534;SHT31;58088;51.186;17.130;2024-02-14T05:35:50;1.21;72.53
70534;SHT31;58088;51.186;17.130;2024-02-14T05:38:17;1.22;72.83
70534;SHT31;58088;51.186;17.130;2024-02-14T05:40:50;1.34;73.23
70534;SHT31;58088;51.186;17.130;2024-02-14T05:43:19;1.35;72.96
70534;SHT31;58088;51.186;17.130;2024-02-14T05:45:47;1.33;72.77
70534;SHT31;58088;51.186;17.130;2024-02-14T05:48:19;1.32;72.69
70534;SHT31;58088;51.186;17.130;2024-02-14T05:50:52;1.30;72.63
70534;SHT31;58088;51.186;17.130;2024-02-14T05:53:21;1.30;72.60
70534;SHT31;58088;51.186;17.130;2024-02-14T05:55:50;1.30;72.61
70534;SHT31;58088;51.186;17.130;2024-02-14T05:58:23;1.29;72.69
70534;SHT31;58088;51.186;17.130;2024-02-14T06:00:54;1.29;72.70
70534;SHT31;58088;51.186;17.130;2024-02-14T06:03:36;1.30;72.67
70534;SHT31;58088;51.186;17.130;2024-02-14T06:06:10;1.32;72.60
70534;SHT31;58088;51.186;17.130;2024-02-14T06:08:39;1.34;72.60
70534;SHT31;58088;51.186;17.130;2024-02-14T06:11:10;1.36;72.57
70534;SHT31;58088;51.186;17.130;2024-02-14T06:13:38;1.38;72.62
70534;SHT31;58088;51.186;17.130;2024-02-14T06:16:04;1.40;72.61
70534;SHT31;58088;51.186;17.130;2024-02-14T06:18:31;1.40;72.60
70534;SHT31;58088;51.186;17.130;2024-02-14T06:20:57;1.42;72.60
70534;SHT31;58088;51.186;17.130;2024-02-14T06:23:23;1.45;72.60
70534;SHT31;58088;51.186;17.130;2024-02-14T06:25:49;1.48;72.55
70534;SHT31;58088;51.186;17.130;2024-02-14T06:28:15;1.50;72.54
70534;SHT31;58088;51.186;17.130;2024-02-14T06:30:42;1.55;72.66
70534;SHT31;58088;51.186;17.130;2024-02-14T06:33:08;1.63;72.69
70534;SHT31;58088;51.186;17.130;2024-02-14T06:35:34;1.73;72.61
70534;SHT31;58088;51.186;17.130;2024-02-14T06:38:00;1.83;72.50
70534;SHT31;58088;51.186;17.130;2024-02-14T06:40:26;1.88;72.28
70534;SHT31;58088;51.186;17.130;2024-02-14T06:42:54;1.92;72.21
70534;SHT31;58088;51.186;17.130;2024-02-14T06:45:21;1.98;72.30
70534;SHT31;58088;51.186;17.130;2024-02-14T06:47:47;2.04;72.27
70534;SHT31;58088;51.186;17.130;2024-02-14T06:50:13;2.15;72.12
70534;SHT31;58088;51.186;17.130;2024-02-14T06:52:39;2.26;71.95
70534;SHT31;58088;51.186;17.130;2024-02-14T06:55:05;2.37;71.92
70534;SHT31;58088;51.186;17.130;2024-02-14T06:57:32;2.52;71.90
70534;SHT31;58088;51.186;17.130;2024-02-14T06:59:59;2.66;71.83
70534;SHT31;58088;51.186;17.130;2024-02-14T07:02:25;2.76;71.79
70534;SHT31;58088;51.186;17.130;2024-02-14T07:04:53;2.83;71.76
70534;SHT31;58088;51.186;17.130;2024-02-14T07:07:20;2.96;71.75
70534;SHT31;58088;51.186;17.130;2024-02-14T07:09:46;3.10;71.74
70534;SHT31;58088;51.186;17.130;2024-02-14T07:12:13;3.26;71.71
70534;SHT31;58088;51.186;17.130;2024-02-14T07:14:39;3.46;71.70
70534;SHT31;58088;51.186;17.130;2024-02-14T07:17:09;3.67;71.61
70534;SHT31;58088;51.186;17.130;2024-02-14T07:19:43;3.80;71.44
70534;SHT31;58088;51.186;17.130;2024-02-14T07:22:13;3.97;71.34
70534;SHT31;58088;51.186;17.130;2024-02-14T07:24:41;4.11;71.27
70534;SHT31;58088;51.186;17.130;2024-02-14T07:27:08;4.22;71.18
70534;SHT31;58088;51.186;17.130;2024-02-14T07:29:34;4.32;71.10
70534;SHT31;58088;51.186;17.130;2024-02-14T07:32:01;4.44;71.08
70534;SHT31;58088;51.186;17.130;2024-02-14T07:34:28;4.60;70.97
70534;SHT31;58088;51.186;17.130;2024-02-14T07:36:54;4.69;70.76
70534;SHT31;58088;51.186;17.130;2024-02-14T07:39:21;4.75;70.80
70534;SHT31;58088;51.186;17.130;2024-02-14T07:41:47;4.89;70.83
70534;SHT31;58088;51.186;17.130;2024-02-14T07:44:13;5.00;70.65
70534;SHT31;58088;51.186;17.130;2024-02-14T07:46:39;5.11;70.55
70534;SHT31;58088;51.186;17.130;2024-02-14T07:49:06;5.23;70.44
70534;SHT31;58088;51.186;17.130;2024-02-14T07:51:32;5.25;70.29
70534;SHT31;58088;51.186;17.130;2024-02-14T07:54:07;5.30;70.34
70534;SHT31;58088;51.186;17.130;2024-02-14T07:56:33;5.42;70.35
70534;SHT31;58088;51.186;17.130;2024-02-14T07:58:59;5.55;70.16
70534;SHT31;58088;51.186;17.130;2024-02-14T08:01:26;5.62;70.03
70534;SHT31;58088;51.186;17.130;2024-02-14T08:03:53;5.68;69.98
70534;SHT31;58088;51.186;17.130;2024-02-14T08:06:20;5.78;69.91
70534;SHT31;58088;51.186;17.130;2024-02-14T08:08:47;5.89;69.71
70534;SHT31;58088;51.186;17.130;2024-02-14T08:11:17;5.84;69.53
70534;SHT31;58088;51.186;17.130;2024-02-14T08:13:43;5.80;69.66
70534;SHT31;58088;51.186;17.130;2024-02-14T08:16:09;5.91;69.81
70534;SHT31;58088;51.186;17.130;2024-02-14T08:18:37;6.09;69.80
70534;SHT31;58088;51.186;17.130;2024-02-14T08:21:06;6.26;69.67
70534;SHT31;58088;51.186;17.130;2024-02-14T08:23:32;6.46;69.36
70534;SHT31;58088;51.186;17.130;2024-02-14T08:26:00;6.63;69.13
70534;SHT31;58088;51.186;17.130;2024-02-14T08:28:27;6.74;68.88
70534;SHT31;58088;51.186;17.130;2024-02-14T08:30:54;6.86;68.87
70534;SHT31;58088;51.186;17.130;2024-02-14T08:33:20;6.92;68.56
70534;SHT31;58088;51.186;17.130;2024-02-14T08:35:47;6.98;68.60
70534;SHT31;58088;51.186;17.130;2024-02-14T08:38:17;7.12;68.59
70534;SHT31;58088;51.186;17.130;2024-02-14T08:40:44;7.25;68.52
70534;SHT31;58088;51.186;17.130;2024-02-14T08:43:14;7.36;68.42
70534;SHT31;58088;51.186;17.130;2024-02-14T08:45:40;7.46;68.24
70534;SHT31;58088;51.186;17.130;2024-02-14T08:48:07;7.56;68.01
70534;SHT31;58088;51.186;17.130;2024-02-14T08:50:33;7.62;67.83
70534;SHT31;58088;51.186;17.130;2024-02-14T08:52:59;7.67;67.81
70534;SHT31;58088;51.186;17.130;2024-02-14T08:55:26;7.79;67.74
70534;SHT31;58088;51.186;17.130;2024-02-14T08:57:52;7.86;67.34
70534;SHT31;58088;51.186;17.130;2024-02-14T09:00:18;7.96;67.31
70534;SHT31;58088;51.186;17.130;2024-02-14T09:02:45;8.11;67.19
70534;SHT31;58088;51.186;17.130;2024-02-14T09:05:15;8.29;67.11
70534;SHT31;58088;51.186;17.130;2024-02-14T09:07:43;8.39;66.72
70534;SHT31;58088;51.186;17.130;2024-02-14T09:10:09;8.49;66.42
70534;SHT31;58088;51.186;17.130;2024-02-14T09:12:38;8.60;66.16
70534;SHT31;58088;51.186;17.130;2024-02-14T09:15:07;8.73;65.66
70534;SHT31;58088;51.186;17.130;2024-02-14T09:17:34;8.87;65.63
70534;SHT31;58088;51.186;17.130;2024-02-14T09:20:01;9.00;65.38
70534;SHT31;58088;51.186;17.130;2024-02-14T09:22:27;9.14;65.09
70534;SHT31;58088;51.186;17.130;2024-02-14T09:24:54;9.31;65.16
70534;SHT31;58088;51.186;17.130;2024-02-14T09:27:22;9.44;64.88
70534;SHT31;58088;51.186;17.130;2024-02-14T09:29:48;9.49;64.24
70534;SHT31;58088;51.186;17.130;2024-02-14T09:32:14;9.47;63.72
70534;SHT31;58088;51.186;17.130;2024-02-14T09:34:41;9.50;63.73
70534;SHT31;58088;51.186;17.130;2024-02-14T09:37:07;9.56;63.26
70534;SHT31;58088;51.186;17.130;2024-02-14T09:39:34;9.61;63.26
70534;SHT31;58088;51.186;17.130;2024-02-14T09:42:02;9.66;63.27
70534;SHT31;58088;51.186;17.130;2024-02-14T09:44:35;9.67;62.92
70534;SHT31;58088;51.186;17.130;2024-02-14T09:47:04;9.77;62.91
70534;SHT31;58088;51.186;17.130;2024-02-14T09:49:33;9.75;63.02
70534;SHT31;58088;51.186;17.130;2024-02-14T09:52:05;9.81;63.01
70534;SHT31;58088;51.186;17.130;2024-02-14T09:54:33;9.87;62.60
70534;SHT31;58088;51.186;17.130;2024-02-14T09:57:04;9.88;62.63
70534;SHT31;58088;51.186;17.130;2024-02-14T09:59:33;9.81;62.44
70534;SHT31;58088;51.186;17.130;2024-02-14T10:02:12;9.80;62.31
70534;SHT31;58088;51.186;17.130;2024-02-14T10:04:38;9.83;62.26
70534;SHT31;58088;51.186;17.130;2024-02-14T10:07:05;9.89;62.44
70534;SHT31;58088;51.186;17.130;2024-02-14T10:09:39;9.99;62.19
70534;SHT31;58088;51.186;17.130;2024-02-14T10:12:10;10.10;62.24
70534;SHT31;58088;51.186;17.130;2024-02-14T10:14:36;10.16;61.88
70534;SHT31;58088;51.186;17.130;2024-02-14T10:17:06;10.14;61.64
70534;SHT31;58088;51.186;17.130;2024-02-14T10:19:35;10.19;61.34
70534;SHT31;58088;51.186;17.130;2024-02-14T10:22:02;10.29;61.38
70534;SHT31;58088;51.186;17.130;2024-02-14T10:24:30;10.38;61.36
70534;SHT31;58088;51.186;17.130;2024-02-14T10:27:00;10.47;60.98
70534;SHT31;58088;51.186;17.130;2024-02-14T10:29:27;10.49;60.56
70534;SHT31;58088;51.186;17.130;2024-02-14T10:31:53;10.52;60.23
70534;SHT31;58088;51.186;17.130;2024-02-14T10:34:24;10.56;60.12
70534;SHT31;58088;51.186;17.130;2024-02-14T10:36:53;10.60;60.19
70534;SHT31;58088;51.186;17.130;2024-02-14T10:39:24;10.65;60.21
70534;SHT31;58088;51.186;17.130;2024-02-14T10:41:52;10.69;59.97
70534;SHT31;58088;51.186;17.130;2024-02-14T10:44:19;10.73;60.10
70534;SHT31;58088;51.186;17.130;2024-02-14T10:46:46;10.78;60.00
70534;SHT31;58088;51.186;17.130;2024-02-14T10:49:17;10.84;59.76
70534;SHT31;58088;51.186;17.130;2024-02-14T10:51:46;10.85;59.20
70534;SHT31;58088;51.186;17.130;2024-02-14T10:54:15;10.89;59.11
70534;SHT31;58088;51.186;17.130;2024-02-14T10:56:43;10.91;58.87
70534;SHT31;58088;51.186;17.130;2024-02-14T10:59:21;10.98;58.89
70534;SHT31;58088;51.186;17.130;2024-02-14T11:01:49;11.03;58.62
70534;SHT31;58088;51.186;17.130;2024-02-14T11:04:17;11.09;58.59
70534;SHT31;58088;51.186;17.130;2024-02-14T11:06:45;11.14;58.26
70534;SHT31;58088;51.186;17.130;2024-02-14T11:09:22;11.19;58.24
70534;SHT31;58088;51.186;17.130;2024-02-14T11:12:00;11.25;58.27
70534;SHT31;58088;51.186;17.130;2024-02-14T11:14:34;11.31;58.37
70534;SHT31;58088;51.186;17.130;2024-02-14T11:17:04;11.35;58.50
70534;SHT31;58088;51.186;17.130;2024-02-14T11:19:34;11.38;58.25
70534;SHT31;58088;51.186;17.130;2024-02-14T11:22:11;11.42;58.15
70534;SHT31;58088;51.186;17.130;2024-02-14T11:24:41;11.45;58.03
70534;SHT31;58088;51.186;17.130;2024-02-14T11:27:10;11.47;57.79
70534;SHT31;58088;51.186;17.130;2024-02-14T11:29:40;11.51;57.55
70534;SHT31;58088;51.186;17.130;2024-02-14T11:32:17;11.60;57.84
70534;SHT31;58088;51.186;17.130;2024-02-14T11:34:54;11.67;57.42
70534;SHT31;58088;51.186;17.130;2024-02-14T11:37:30;11.74;57.15
70534;SHT31;58088;51.186;17.130;2024-02-14T11:40:00;11.84;56.86
70534;SHT31;58088;51.186;17.130;2024-02-14T11:42:27;11.88;56.71
70534;SHT31;58088;51.186;17.130;2024-02-14T11:44:57;11.94;56.60
70534;SHT31;58088;51.186;17.130;2024-02-14T11:47:24;11.94;56.28
70534;SHT31;58088;51.186;17.130;2024-02-14T11:49:53;11.94;56.60
70534;SHT31;58088;51.186;17.130;2024-02-14T11:52:21;11.97;56.82
70534;SHT31;58088;51.186;17.130;2024-02-14T11:54:48;12.02;56.87
70534;SHT31;58088;51.186;17.130;2024-02-14T11:57:17;12.05;56.54
70534;SHT31;58088;51.186;17.130;2024-02-14T11:59:48;12.05;56.43
70534;SHT31;58088;51.186;17.130;2024-02-14T12:02:18;12.12;56.54
70534;SHT31;58088;51.186;17.130;2024-02-14T12:04:46;12.24;56.94
70534;SHT31;58088;51.186;17.130;2024-02-14T12:07:15;12.32;56.57
70534;SHT31;58088;51.186;17.130;2024-02-14T12:09:43;12.30;55.53
70534;SHT31;58088;51.186;17.130;2024-02-14T12:12:09;12.28;55.38
70534;SHT31;58088;51.186;17.130;2024-02-14T12:14:36;12.31;55.66
70534;SHT31;58088;51.186;17.130;2024-02-14T12:17:03;12.34;55.78
70534;SHT31;58088;51.186;17.130;2024-02-14T12:19:32;12.41;56.01
70534;SHT31;58088;51.186;17.130;2024-02-14T12:21:59;12.43;56.20
70534;SHT31;58088;51.186;17.130;2024-02-14T12:24:27;12.43;55.93
70534;SHT31;58088;51.186;17.130;2024-02-14T12:26:56;12.46;55.77
70534;SHT31;58088;51.186;17.130;2024-02-14T12:29:23;12.47;55.64
70534;SHT31;58088;51.186;17.130;2024-02-14T12:31:50;12.46;55.25
70534;SHT31;58088;51.186;17.130;2024-02-14T12:34:16;12.43;55.11
70534;SHT31;58088;51.186;17.130;2024-02-14T12:36:45;12.37;55.00
70534;SHT31;58088;51.186;17.130;2024-02-14T12:39:11;12.28;55.00
70534;SHT31;58088;51.186;17.130;2024-02-14T12:41:38;12.27;55.14
70534;SHT31;58088;51.186;17.130;2024-02-14T12:44:05;12.25;55.41
70534;SHT31;58088;51.186;17.130;2024-02-14T12:46:32;12.23;55.42
70534;SHT31;58088;51.186;17.130;2024-02-14T12:48:59;12.24;55.19
70534;SHT31;58088;51.186;17.130;2024-02-14T12:51:25;12.33;55.18
70534;SHT31;58088;51.186;17.130;2024-02-14T12:53:53;12.37;55.02
70534;SHT31;58088;51.186;17.130;2024-02-14T12:56:20;12.40;54.75
70534;SHT31;58088;51.186;17.130;2024-02-14T12:58:51;12.38;54.04
70534;SHT31;58088;51.186;17.130;2024-02-14T13:01:18;12.39;53.87
70534;SHT31;58088;51.186;17.130;2024-02-14T13:03:45;12.40;53.96
70534;SHT31;58088;51.186;17.130;2024-02-14T13:06:11;12.37;53.93
70534;SHT31;58088;51.186;17.130;2024-02-14T13:08:39;12.37;53.91
70534;SHT31;58088;51.186;17.130;2024-02-14T13:11:06;12.39;53.89
70534;SHT31;58088;51.186;17.130;2024-02-14T13:13:34;12.43;53.73
70534;SHT31;58088;51.186;17.130;2024-02-14T13:16:02;12.43;53.66
70534;SHT31;58088;51.186;17.130;2024-02-14T13:18:28;12.46;53.72
70534;SHT31;58088;51.186;17.130;2024-02-14T13:20:54;12.44;53.94
70534;SHT31;58088;51.186;17.130;2024-02-14T13:23:25;12.48;53.83
70534;SHT31;58088;51.186;17.130;2024-02-14T13:25:52;12.55;53.83
70534;SHT31;58088;51.186;17.130;2024-02-14T13:28:18;12.52;53.64
70534;SHT31;58088;51.186;17.130;2024-02-14T13:30:44;12.52;53.83
70534;SHT31;58088;51.186;17.130;2024-02-14T13:33:15;12.51;53.57
70534;SHT31;58088;51.186;17.130;2024-02-14T13:35:41;12.51;53.66
70534;SHT31;58088;51.186;17.130;2024-02-14T13:38:07;12.55;53.62
70534;SHT31;58088;51.186;17.130;2024-02-14T13:40:35;12.60;53.40
70534;SHT31;58088;51.186;17.130;2024-02-14T13:43:01;12.63;53.36
70534;SHT31;58088;51.186;17.130;2024-02-14T13:45:32;12.66;53.33
70534;SHT31;58088;51.186;17.130;2024-02-14T13:48:10;12.68;52.93
70534;SHT31;58088;51.186;17.130;2024-02-14T13:50:37;12.70;52.88
70534;SHT31;58088;51.186;17.130;2024-02-14T13:53:03;12.72;52.99
70534;SHT31;58088;51.186;17.130;2024-02-14T13:55:32;12.74;53.04
70534;SHT31;58088;51.186;17.130;2024-02-14T13:57:59;12.76;52.76
70534;SHT31;58088;51.186;17.130;2024-02-14T14:00:25;12.79;53.00
70534;SHT31;58088;51.186;17.130;2024-02-14T14:02:53;12.77;53.04
70534;SHT31;58088;51.186;17.130;2024-02-14T14:05:20;12.74;52.90
70534;SHT31;58088;51.186;17.130;2024-02-14T14:07:47;12.73;52.81
70534;SHT31;58088;51.186;17.130;2024-02-14T14:10:13;12.73;52.84
70534;SHT31;58088;51.186;17.130;2024-02-14T14:12:39;12.73;52.74
70534;SHT31;58088;51.186;17.130;2024-02-14T14:15:06;12.74;52.71
70534;SHT31;58088;51.186;17.130;2024-02-14T14:17:34;12.75;52.83
70534;SHT31;58088;51.186;17.130;2024-02-14T14:20:02;12.78;53.19
70534;SHT31;58088;51.186;17.130;2024-02-14T14:22:29;12.80;53.17
70534;SHT31;58088;51.186;17.130;2024-02-14T14:24:55;12.78;53.02
70534;SHT31;58088;51.186;17.130;2024-02-14T14:27:21;12.75;53.01
70534;SHT31;58088;51.186;17.130;2024-02-14T14:29:47;12.74;53.01
70534;SHT31;58088;51.186;17.130;2024-02-14T14:32:14;12.71;53.00
70534;SHT31;58088;51.186;17.130;2024-02-14T14:34:42;12.68;53.27
70534;SHT31;58088;51.186;17.130;2024-02-14T14:37:08;12.67;53.21
70534;SHT31;58088;51.186;17.130;2024-02-14T14:39:35;12.64;53.21
70534;SHT31;58088;51.186;17.130;2024-02-14T14:42:02;12.62;53.31
70534;SHT31;58088;51.186;17.130;2024-02-14T14:44:29;12.61;53.51
70534;SHT31;58088;51.186;17.130;2024-02-14T14:46:56;12.64;53.73
70534;SHT31;58088;51.186;17.130;2024-02-14T14:49:22;12.59;53.59
70534;SHT31;58088;51.186;17.130;2024-02-14T14:51:48;12.56;53.83
70534;SHT31;58088;51.186;17.130;2024-02-14T14:54:14;12.56;53.99
70534;SHT31;58088;51.186;17.130;2024-02-14T14:56:40;12.55;54.09
70534;SHT31;58088;51.186;17.130;2024-02-14T14:59:07;12.55;54.21
70534;SHT31;58088;51.186;17.130;2024-02-14T15:01:34;12.55;54.31
70534;SHT31;58088;51.186;17.130;2024-02-14T15:04:01;12.56;54.51
70534;SHT31;58088;51.186;17.130;2024-02-14T15:06:27;12.54;54.69
70534;SHT31;58088;51.186;17.130;2024-02-14T15:08:53;12.56;54.96
70534;SHT31;58088;51.186;17.130;2024-02-14T15:11:19;12.56;55.02
70534;SHT31;58088;51.186;17.130;2024-02-14T15:13:46;12.54;55.02
70534;SHT31;58088;51.186;17.130;2024-02-14T15:16:14;12.51;55.03
70534;SHT31;58088;51.186;17.130;2024-02-14T15:18:40;12.48;55.04
70534;SHT31;58088;51.186;17.130;2024-02-14T15:21:10;12.47;55.22
70534;SHT31;58088;51.186;17.130;2024-02-14T15:23:37;12.45;55.31
70534;SHT31;58088;51.186;17.130;2024-02-14T15:26:03;12.43;55.38
70534;SHT31;58088;51.186;17.130;2024-02-14T15:28:32;12.40;55.60
70534;SHT31;58088;51.186;17.130;2024-02-14T15:31:08;12.40;55.95